createdAt,value
2018-09-08T00:00:29.223Z,9.05
2018-09-08T00:01:29.208Z,9.04
2018-09-08T00:02:29.219Z,9.10
2018-09-08T00:03:29.185Z,8.99
2018-09-08T00:04:29.173Z,9.04
2018-09-08T00:05:29.158Z,9.05
2018-09-08T00:06:29.151Z,9.12
2018-09-08T00:07:29.158Z,9.09
2018-09-08T00:08:29.131Z,9.06
2018-09-08T00:09:29.116Z,8.93
2018-09-08T00:10:29.102Z,9.09
2018-09-08T00:11:29.100Z,9.01
2018-09-08T00:12:29.106Z,9.13
2018-09-08T00:13:29.070Z,9.13
2018-09-08T00:14:29.061Z,9.20
2018-09-08T00:15:29.052Z,9.16
2018-09-08T00:16:29.039Z,9.12
2018-09-08T00:17:29.044Z,9.18
2018-09-08T00:18:29.019Z,9.12
2018-09-08T00:19:28.999Z,9.21
2018-09-08T00:20:28.987Z,9.15
2018-09-08T00:21:28.980Z,9.12
2018-09-08T00:22:28.992Z,9.24
2018-09-08T00:23:28.963Z,9.25
2018-09-08T00:24:28.950Z,9.38
2018-09-08T00:25:28.930Z,9.32
2018-09-08T00:26:28.927Z,9.21
2018-09-08T00:27:28.945Z,9.39
2018-09-08T00:28:28.908Z,9.46
2018-09-08T00:29:28.883Z,9.46
2018-09-08T00:30:28.878Z,9.49
2018-09-08T00:31:28.867Z,9.49
2018-09-08T00:32:28.855Z,9.48
2018-09-08T00:33:28.863Z,9.58
2018-09-08T00:34:28.826Z,9.57
2018-09-08T00:35:28.827Z,9.53
2018-09-08T00:36:28.811Z,9.57
2018-09-08T00:37:28.792Z,9.58
2018-09-08T00:38:28.842Z,9.57
2018-09-08T00:39:28.768Z,9.58
2018-09-08T00:40:28.764Z,9.60
2018-09-08T00:41:28.753Z,9.48
2018-09-08T00:42:28.732Z,9.56
2018-09-08T00:43:28.728Z,9.56
2018-09-08T00:44:28.734Z,9.52
2018-09-08T00:45:28.698Z,9.52
2018-09-08T00:46:28.683Z,9.61
2018-09-08T00:47:28.682Z,9.64
2018-09-08T00:48:28.670Z,9.61
2018-09-08T00:49:28.672Z,9.73
2018-09-08T00:50:28.640Z,9.68
2018-09-08T00:51:28.629Z,9.63
2018-09-08T00:52:28.612Z,9.56
2018-09-08T00:53:28.609Z,9.56
2018-09-08T00:54:28.617Z,9.58
2018-09-08T00:55:28.585Z,9.57
2018-09-08T00:56:28.570Z,9.46
2018-09-08T00:57:28.553Z,9.58
2018-09-08T00:58:28.548Z,9.61
2018-09-08T00:59:28.553Z,9.75
2018-09-08T01:00:28.524Z,9.70
2018-09-08T01:01:28.506Z,9.81
2018-09-08T01:02:43.395Z,9.75
2018-09-08T01:03:28.480Z,9.79
2018-09-08T01:04:28.490Z,9.88
2018-09-08T01:05:28.483Z,9.91
2018-09-08T01:06:28.449Z,9.97
2018-09-08T01:07:28.436Z,10.03
2018-09-08T01:08:28.430Z,10.00
2018-09-08T01:09:28.409Z,9.99
2018-09-08T01:10:28.425Z,9.97
2018-09-08T01:11:28.385Z,9.99
2018-09-08T01:12:28.372Z,9.91
2018-09-08T01:13:28.369Z,9.96
2018-09-08T01:14:28.347Z,10.09
2018-09-08T01:15:28.370Z,9.89
2018-09-08T01:16:28.329Z,9.85
2018-09-08T01:17:28.314Z,9.81
2018-09-08T01:18:28.307Z,9.76
2018-09-08T01:19:28.291Z,9.75
2018-09-08T01:20:28.301Z,9.61
2018-09-08T01:21:28.270Z,9.60
2018-09-08T01:22:28.255Z,9.66
2018-09-08T01:23:28.249Z,9.50
2018-09-08T01:24:28.234Z,9.57
2018-09-08T01:25:28.241Z,9.48
2018-09-08T01:26:28.204Z,9.61
2018-09-08T01:27:28.201Z,9.48
2018-09-08T01:28:28.184Z,9.46
2018-09-08T01:29:28.174Z,9.66
2018-09-08T01:30:28.189Z,9.61
2018-09-08T01:31:28.144Z,9.66
2018-09-08T01:32:28.141Z,9.71
2018-09-08T01:33:28.120Z,9.76
2018-09-08T01:34:28.111Z,9.91
2018-09-08T01:35:28.125Z,10.09
2018-09-08T01:36:28.084Z,10.04
2018-09-08T01:37:28.081Z,10.07
2018-09-08T01:38:28.065Z,10.10
2018-09-08T01:39:28.051Z,10.12
2018-09-08T01:40:28.057Z,10.17
2018-09-08T01:41:28.030Z,10.22
2018-09-08T01:42:28.018Z,10.32
2018-09-08T01:43:28.004Z,10.19
2018-09-08T01:44:27.990Z,10.39
2018-09-08T01:45:28.006Z,10.40
2018-09-08T01:46:27.972Z,10.44
2018-09-08T01:47:27.958Z,10.46
2018-09-08T01:48:27.949Z,10.42
2018-09-08T01:49:27.929Z,10.36
2018-09-08T01:50:27.954Z,10.28
2018-09-08T01:51:27.903Z,10.34
2018-09-08T01:52:27.893Z,10.17
2018-09-08T01:53:27.900Z,10.15
2018-09-08T01:54:27.894Z,10.04
2018-09-08T01:55:27.867Z,10.07
2018-09-08T01:56:27.876Z,10.07
2018-09-08T01:57:27.838Z,10.03
2018-09-08T01:58:27.825Z,10.00
2018-09-08T01:59:27.809Z,9.94
2018-09-08T02:00:27.803Z,10.03
2018-09-08T02:01:27.811Z,9.93
2018-09-08T02:02:27.779Z,10.15
2018-09-08T02:03:27.764Z,10.17
2018-09-08T02:04:27.750Z,10.28
2018-09-08T02:05:27.746Z,10.36
2018-09-08T02:06:27.753Z,10.44
2018-09-08T02:07:27.716Z,10.46
2018-09-08T02:08:27.710Z,10.52
2018-09-08T02:09:27.689Z,10.37
2018-09-08T02:10:27.680Z,10.36
2018-09-08T02:11:27.695Z,10.34
2018-09-08T02:12:27.660Z,10.34
2018-09-08T02:13:27.650Z,10.40
2018-09-08T02:14:27.630Z,10.58
2018-09-08T02:15:27.627Z,10.59
2018-09-08T02:16:27.637Z,10.68
2018-09-08T02:17:27.594Z,10.68
2018-09-08T02:18:27.591Z,10.66
2018-09-08T02:19:27.577Z,10.77
2018-09-08T02:20:27.562Z,10.96
2018-09-08T02:21:27.575Z,10.91
2018-09-08T02:22:27.543Z,10.89
2018-09-08T02:23:27.524Z,10.99
2018-09-08T02:24:27.517Z,11.07
2018-09-08T02:25:27.510Z,11.19
2018-09-08T02:26:27.509Z,11.11
2018-09-08T02:27:27.487Z,11.21
2018-09-08T02:28:27.474Z,11.11
2018-09-08T02:29:27.458Z,11.17
2018-09-08T02:30:27.450Z,11.10
2018-09-08T02:31:27.454Z,11.16
2018-09-08T02:32:27.424Z,11.11
2018-09-08T02:33:27.410Z,11.17
2018-09-08T02:34:27.396Z,11.27
2018-09-08T02:35:27.385Z,11.29
2018-09-08T02:36:27.395Z,11.28
2018-09-08T02:37:27.369Z,11.35
2018-09-08T02:38:27.350Z,11.27
2018-09-08T02:39:27.345Z,11.31
2018-09-08T02:40:27.334Z,11.29
2018-09-08T02:41:27.336Z,11.39
2018-09-08T02:42:27.310Z,11.27
2018-09-08T02:43:27.291Z,11.28
2018-09-08T02:44:27.279Z,11.17
2018-09-08T02:45:27.271Z,11.11
2018-09-08T02:46:27.280Z,11.10
2018-09-08T02:47:27.248Z,11.14
2018-09-08T02:48:27.236Z,11.20
2018-09-08T02:49:27.228Z,11.11
2018-09-08T02:50:27.219Z,11.13
2018-09-08T02:51:27.219Z,11.13
2018-09-08T02:52:27.190Z,11.14
2018-09-08T02:53:27.179Z,11.03
2018-09-08T02:54:27.166Z,10.96
2018-09-08T02:55:27.156Z,11.07
2018-09-08T02:56:27.174Z,11.17
2018-09-08T02:57:27.133Z,11.13
2018-09-08T02:58:27.122Z,11.17
2018-09-08T02:59:27.106Z,11.09
2018-09-08T03:00:27.100Z,11.11
2018-09-08T03:01:27.079Z,11.07
2018-09-08T03:02:27.091Z,10.98
2018-09-08T03:03:27.056Z,11.01
2018-09-08T03:04:27.044Z,10.98
2018-09-08T03:05:27.035Z,10.95
2018-09-08T03:06:27.026Z,11.09
2018-09-08T03:07:27.032Z,11.14
2018-09-08T03:08:27.006Z,11.10
2018-09-08T03:09:26.989Z,11.07
2018-09-08T03:10:26.978Z,11.10
2018-09-08T03:11:26.966Z,11.09
2018-09-08T03:12:26.974Z,11.07
2018-09-08T03:13:26.943Z,10.96
2018-09-08T03:14:26.928Z,10.94
2018-09-08T03:15:26.920Z,10.83
2018-09-08T03:16:26.907Z,10.94
2018-09-08T03:17:26.922Z,10.73
2018-09-08T03:18:26.886Z,10.78
2018-09-08T03:19:26.870Z,10.73
2018-09-08T03:20:26.864Z,10.86
2018-09-08T03:21:26.843Z,10.74
2018-09-08T03:22:26.863Z,10.74
2018-09-08T03:23:26.825Z,10.80
2018-09-08T05:17:09.891Z,9.67
2018-09-08T05:18:09.835Z,9.61
2018-09-08T05:22:49.225Z,9.57
2018-09-08T05:23:49.224Z,9.64
2018-09-08T05:26:33.548Z,9.66
2018-09-08T05:27:33.538Z,9.57
2018-09-08T05:29:45.800Z,9.66
2018-09-08T05:32:28.543Z,9.68
2018-09-08T05:35:01.787Z,9.67
2018-09-08T05:37:20.767Z,9.64
2018-09-08T05:39:35.943Z,9.67
2018-09-08T05:41:42.070Z,9.73
2018-09-08T05:43:48.819Z,9.71
2018-09-08T05:45:30.354Z,9.76
2018-09-08T05:47:41.908Z,9.70
2018-09-08T05:49:35.720Z,9.67
2018-09-08T05:51:32.868Z,9.75
2018-09-08T05:53:25.500Z,9.78
2018-09-08T05:55:03.723Z,9.79
2018-09-08T05:56:24.499Z,9.81
2018-09-08T05:57:24.484Z,9.79
2018-09-08T05:58:39.356Z,9.83
2018-09-08T05:59:57.781Z,9.97
2018-09-08T06:01:24.266Z,9.86
2018-09-08T06:02:48.613Z,9.89
2018-09-08T06:03:48.332Z,9.81
2018-09-08T06:05:02.333Z,9.85
2018-09-08T06:06:21.369Z,9.93
2018-09-08T06:07:48.079Z,9.94
2018-09-08T06:08:48.074Z,9.93
2018-09-08T06:10:00.844Z,10.09
2018-09-08T06:11:14.213Z,10.25
2018-09-08T06:12:14.127Z,10.44
2018-09-08T06:13:14.091Z,10.51
2018-09-08T06:14:14.075Z,10.58
2018-09-08T06:15:14.090Z,10.77
2018-09-08T06:16:14.054Z,10.84
2018-09-08T06:17:14.048Z,10.96
2018-09-08T06:18:14.062Z,11.10
2018-09-08T06:19:14.025Z,11.20
2018-09-08T06:20:14.026Z,11.28
2018-09-08T06:21:13.993Z,11.36
2018-09-08T06:22:13.990Z,11.52
2018-09-08T06:23:13.977Z,11.59
2018-09-08T06:24:13.972Z,11.61
2018-09-08T06:25:13.968Z,11.86
2018-09-08T06:26:13.945Z,12.05
2018-09-08T06:27:13.930Z,12.12
2018-09-08T06:28:13.915Z,12.12
2018-09-08T06:29:13.914Z,12.20
2018-09-08T06:30:13.918Z,12.31
2018-09-08T06:31:13.880Z,12.37
2018-09-08T06:32:13.873Z,12.34
2018-09-08T06:33:13.866Z,12.37
2018-09-08T06:34:13.848Z,12.51
2018-09-08T06:35:13.915Z,12.63
2018-09-08T06:36:13.851Z,12.74
2018-09-08T06:37:13.810Z,12.71
2018-09-08T06:38:13.803Z,12.71
2018-09-08T06:39:13.803Z,12.81
2018-09-08T06:40:13.775Z,12.88
2018-09-08T06:41:13.794Z,12.93
2018-09-08T06:42:13.754Z,13.02
2018-09-08T06:43:13.743Z,13.02
2018-09-08T06:44:13.738Z,13.07
2018-09-08T06:45:14.018Z,13.15
2018-09-08T06:46:13.737Z,13.36
2018-09-08T06:47:13.699Z,13.49
2018-09-08T06:48:13.908Z,13.47
2018-09-08T06:49:13.673Z,13.47
2018-09-08T06:50:13.665Z,13.51
2018-09-08T06:51:13.678Z,13.55
2018-09-08T06:52:13.713Z,13.62
2018-09-08T06:53:13.632Z,13.62
2018-09-08T06:54:13.613Z,13.73
2018-09-08T06:55:13.611Z,13.92
2018-09-08T06:56:13.617Z,13.91
2018-09-08T06:57:13.576Z,14.09
2018-09-08T06:58:13.573Z,14.07
2018-09-08T06:59:13.557Z,13.95
2018-09-08T07:00:13.756Z,14.13
2018-09-08T07:01:13.649Z,14.19
2018-09-08T07:02:13.516Z,14.16
2018-09-08T07:03:13.528Z,14.10
2018-09-08T07:04:13.504Z,14.24
2018-09-08T07:05:13.489Z,14.35
2018-09-08T07:06:13.496Z,14.37
2018-09-08T07:07:13.460Z,14.42
2018-09-08T07:08:13.462Z,14.34
2018-09-08T07:09:13.439Z,14.38
2018-09-08T07:10:13.424Z,14.53
2018-09-08T07:11:13.439Z,14.35
2018-09-08T07:12:13.402Z,14.42
2018-09-08T07:13:13.400Z,14.44
2018-09-08T07:14:13.379Z,14.60
2018-09-08T07:15:13.427Z,14.39
2018-09-08T07:16:13.379Z,14.50
2018-09-08T07:17:13.348Z,14.54
2018-09-08T07:18:13.342Z,14.54
2018-09-08T07:19:13.322Z,14.64
2018-09-08T07:20:13.332Z,14.56
2018-09-08T07:21:13.331Z,14.57
2018-09-08T07:22:13.290Z,14.60
2018-09-08T07:23:13.283Z,14.68
2018-09-08T07:24:13.265Z,14.83
2018-09-08T07:25:13.254Z,14.84
2018-09-08T07:26:13.268Z,14.94
2018-09-08T07:27:13.237Z,14.93
2018-09-08T07:28:13.223Z,14.90
2018-09-08T07:29:13.214Z,14.87
2018-09-08T07:30:13.207Z,14.94
2018-09-08T07:31:13.214Z,15.06
2018-09-08T07:32:13.178Z,15.21
2018-09-08T07:33:13.171Z,15.35
2018-09-08T07:34:13.151Z,15.49
2018-09-08T07:35:13.143Z,15.54
2018-09-08T07:36:13.156Z,15.75
2018-09-08T07:37:13.157Z,15.86
2018-09-08T07:38:13.111Z,15.85
2018-09-08T07:39:13.093Z,15.85
2018-09-08T07:40:13.089Z,15.85
2018-09-08T07:41:13.104Z,15.93
2018-09-08T07:42:13.065Z,15.94
2018-09-08T07:43:13.056Z,16.23
2018-09-08T07:44:13.035Z,16.16
2018-09-08T07:45:13.027Z,16.31
2018-09-08T07:46:13.018Z,16.30
2018-09-08T07:47:13.031Z,16.45
2018-09-08T07:48:12.989Z,16.75
2018-09-08T07:49:12.984Z,16.80
2018-09-08T07:50:12.984Z,16.88
2018-09-08T07:51:12.955Z,17.15
2018-09-08T07:52:12.975Z,17.28
2018-09-08T07:53:12.952Z,17.29
2018-09-08T07:54:12.929Z,17.44
2018-09-08T07:55:12.921Z,17.57
2018-09-08T07:56:12.903Z,17.69
2018-09-08T07:57:12.918Z,17.79
2018-09-08T07:58:12.880Z,17.92
2018-09-08T07:59:12.900Z,17.89
2018-09-08T08:00:12.861Z,17.88
2018-09-08T08:01:12.847Z,17.95
2018-09-08T08:02:12.871Z,18.02
2018-09-08T08:03:12.823Z,17.91
2018-09-08T08:04:12.810Z,18.02
2018-09-08T08:05:12.797Z,17.82
2018-09-08T08:06:12.788Z,17.82
2018-09-08T08:07:12.799Z,17.85
2018-09-08T08:08:12.770Z,17.85
2018-09-08T08:09:12.755Z,17.87
2018-09-08T08:10:12.736Z,17.82
2018-09-08T08:11:12.733Z,17.82
2018-09-08T08:12:12.734Z,18.10
2018-09-08T08:13:12.702Z,18.06
2018-09-08T08:14:12.691Z,18.07
2018-09-08T08:15:12.684Z,18.03
2018-09-08T08:16:12.675Z,17.92
2018-09-08T08:17:12.682Z,17.82
2018-09-08T08:18:12.645Z,17.91
2018-09-08T08:19:12.630Z,17.69
2018-09-08T08:20:12.629Z,17.91
2018-09-08T08:21:12.615Z,18.00
2018-09-08T08:22:12.624Z,17.97
2018-09-08T08:23:12.604Z,18.19
2018-09-08T08:24:12.573Z,18.47
2018-09-08T08:25:12.567Z,18.59
2018-09-08T08:26:12.550Z,18.68
2018-09-08T08:27:12.567Z,18.70
2018-09-08T08:28:12.541Z,18.84
2018-09-08T08:29:12.527Z,18.70
2018-09-08T08:30:12.510Z,18.83
2018-09-08T08:31:12.520Z,18.87
2018-09-08T08:32:12.514Z,18.72
2018-09-08T08:33:12.475Z,18.86
2018-09-08T08:34:12.465Z,18.76
2018-09-08T08:35:12.449Z,18.76
2018-09-08T08:36:12.439Z,18.79
2018-09-08T08:37:12.516Z,18.68
2018-09-08T08:38:12.414Z,18.64
2018-09-08T08:39:12.405Z,18.54
2018-09-08T08:40:12.391Z,18.74
2018-09-08T08:41:12.396Z,18.57
2018-09-08T08:42:12.393Z,18.54
2018-09-08T08:43:12.398Z,18.62
2018-09-08T08:44:12.352Z,18.67
2018-09-08T08:45:12.337Z,18.67
2018-09-08T08:46:12.322Z,18.68
2018-09-08T08:47:12.333Z,18.72
2018-09-08T08:48:12.299Z,18.79
2018-09-08T08:49:12.292Z,18.76
2018-09-08T08:50:12.277Z,18.83
2018-09-08T08:51:12.269Z,18.90
2018-09-08T08:52:12.285Z,18.97
2018-09-08T08:53:12.242Z,18.97
2018-09-08T08:54:12.236Z,19.01
2018-09-08T08:55:12.221Z,19.08
2018-09-08T08:56:12.211Z,19.05
2018-09-08T08:57:12.197Z,19.14
2018-09-08T08:58:12.262Z,19.38
2018-09-08T08:59:12.173Z,19.32
2018-09-08T09:00:12.169Z,19.24
2018-09-08T09:01:12.153Z,19.14
2018-09-08T09:02:12.144Z,19.05
2018-09-08T09:03:12.149Z,18.64
2018-09-08T09:04:12.114Z,18.58
2018-09-08T09:05:12.106Z,18.50
2018-09-08T09:06:12.096Z,18.55
2018-09-08T09:07:12.605Z,18.33
2018-09-08T09:08:12.096Z,18.47
2018-09-08T09:09:12.063Z,18.36
2018-09-08T09:10:12.095Z,18.49
2018-09-08T09:11:12.040Z,18.64
2018-09-08T09:12:12.030Z,18.72
2018-09-08T09:13:12.088Z,18.80
2018-09-08T09:14:12.009Z,18.92
2018-09-08T09:15:12.386Z,19.01
2018-09-08T09:16:11.986Z,19.11
2018-09-08T09:17:11.972Z,19.33
2018-09-08T09:18:11.981Z,19.53
2018-09-08T09:19:11.949Z,19.69
2018-09-08T09:20:11.941Z,19.75
2018-09-08T09:21:11.920Z,19.83
2018-09-08T09:22:11.920Z,19.83
2018-09-08T09:23:11.925Z,20.23
2018-09-08T09:24:12.015Z,20.47
2018-09-08T09:25:11.884Z,20.56
2018-09-08T09:26:11.863Z,20.72
2018-09-08T09:27:11.855Z,20.81
2018-09-08T09:28:11.876Z,20.83
2018-09-08T09:29:11.837Z,20.98
2018-09-08T09:30:11.823Z,21.13
2018-09-08T09:31:11.814Z,21.32
2018-09-08T09:32:11.836Z,21.32
2018-09-08T09:33:11.789Z,20.93
2018-09-08T09:34:11.800Z,20.61
2018-09-08T09:35:11.766Z,20.41
2018-09-08T09:36:11.751Z,20.06
2018-09-08T09:37:11.758Z,20.24
2018-09-08T09:38:11.736Z,20.24
2018-09-08T09:39:11.743Z,20.28
2018-09-08T09:40:11.713Z,20.56
2018-09-08T09:41:11.703Z,20.72
2018-09-08T09:42:11.687Z,20.84
2018-09-08T09:43:11.681Z,21.11
2018-09-08T09:44:11.746Z,21.26
2018-09-08T09:45:11.661Z,21.46
2018-09-08T09:46:11.648Z,21.76
2018-09-08T09:47:11.639Z,21.85
2018-09-08T09:48:11.620Z,21.53
2018-09-08T09:49:11.635Z,21.63
2018-09-08T09:50:11.605Z,21.67
2018-09-08T09:51:11.586Z,22.02
2018-09-08T09:52:11.579Z,22.19
2018-09-08T09:53:11.596Z,22.14
2018-09-08T09:54:11.585Z,21.64
2018-09-08T09:55:11.542Z,21.32
2018-09-08T09:56:11.540Z,21.56
2018-09-08T09:57:11.534Z,21.48
2018-09-08T09:58:11.509Z,21.41
2018-09-08T09:59:11.528Z,21.36
2018-09-08T10:00:11.488Z,21.42
2018-09-08T10:01:11.533Z,21.63
2018-09-08T10:02:11.468Z,21.82
2018-09-08T10:03:11.464Z,21.83
2018-09-08T10:04:11.476Z,21.91
2018-09-08T10:05:11.434Z,21.78
2018-09-08T10:06:11.428Z,21.92
2018-09-08T10:07:11.413Z,21.94
2018-09-08T10:08:11.400Z,21.88
2018-09-08T10:09:11.398Z,21.63
2018-09-08T10:10:11.401Z,21.60
2018-09-08T10:11:11.370Z,21.61
2018-09-08T10:12:11.410Z,21.60
2018-09-08T10:13:11.345Z,21.54
2018-09-08T10:14:11.343Z,21.71
2018-09-08T10:15:11.354Z,21.95
2018-09-08T10:16:11.316Z,22.20
2018-09-08T10:17:11.310Z,22.37
2018-09-08T10:18:11.290Z,22.69
2018-09-08T10:19:11.282Z,22.74
2018-09-08T10:20:11.295Z,22.94
2018-09-08T10:21:11.257Z,23.15
2018-09-08T10:22:11.255Z,22.84
2018-09-08T10:23:11.362Z,23.14
2018-09-08T10:24:11.227Z,23.42
2018-09-08T10:25:11.232Z,23.65
2018-09-08T10:26:11.249Z,23.75
2018-09-08T10:27:11.196Z,23.65
2018-09-08T10:28:11.182Z,23.52
2018-09-08T10:29:11.179Z,23.46
2018-09-08T10:30:11.178Z,22.78
2018-09-08T10:31:11.150Z,22.32
2018-09-08T10:32:11.534Z,22.35
2018-09-08T10:33:11.125Z,22.31
2018-09-08T10:34:11.122Z,22.02
2018-09-08T10:35:11.137Z,21.91
2018-09-08T10:36:11.099Z,22.12
2018-09-08T10:37:11.090Z,22.14
2018-09-08T10:38:11.070Z,22.16
2018-09-08T10:39:11.061Z,22.22
2018-09-08T10:40:11.098Z,22.06
2018-09-08T10:41:11.047Z,21.79
2018-09-08T10:42:11.027Z,21.24
2018-09-08T10:43:11.024Z,21.29
2018-09-08T10:44:11.006Z,21.53
2018-09-08T10:45:11.016Z,21.78
2018-09-08T10:46:10.990Z,21.92
2018-09-08T10:47:10.971Z,21.99
2018-09-08T10:48:10.970Z,22.06
2018-09-08T10:49:10.959Z,22.31
2018-09-08T10:50:10.987Z,22.59
2018-09-08T10:51:10.930Z,22.67
2018-09-08T10:52:10.923Z,22.69
2018-09-08T10:53:10.911Z,22.93
2018-09-08T10:54:10.898Z,23.12
2018-09-08T10:55:10.883Z,23.31
2018-09-08T10:56:10.896Z,23.47
2018-09-08T10:57:10.867Z,23.75
2018-09-08T10:58:10.853Z,24.05
2018-09-08T10:59:10.858Z,24.52
2018-09-08T11:00:10.833Z,24.57
2018-09-08T11:01:10.843Z,24.24
2018-09-08T11:02:11.082Z,24.32
2018-09-08T11:03:10.799Z,24.61
2018-09-08T11:04:10.791Z,24.85
2018-09-08T11:05:10.781Z,24.82
2018-09-08T11:06:10.795Z,24.14
2018-09-08T11:07:10.760Z,23.85
2018-09-08T11:08:10.744Z,23.83
2018-09-08T11:09:10.741Z,23.64
2018-09-08T11:10:10.724Z,23.20
2018-09-08T11:11:10.745Z,23.39
2018-09-08T11:12:10.709Z,23.65
2018-09-08T11:13:10.696Z,23.53
2018-09-08T11:14:10.686Z,23.52
2018-09-08T11:15:10.679Z,23.24
2018-09-08T11:16:10.683Z,23.19
2018-09-08T11:17:10.657Z,22.80
2018-09-08T11:18:10.641Z,22.82
2018-09-08T11:19:10.627Z,23.04
2018-09-08T11:20:10.624Z,22.83
2018-09-08T11:21:10.635Z,22.90
2018-09-08T11:22:10.594Z,22.90
2018-09-08T11:23:10.588Z,23.19
2018-09-08T11:24:10.579Z,23.40
2018-09-08T11:25:10.562Z,23.68
2018-09-08T11:26:10.583Z,23.68
2018-09-08T11:27:10.546Z,23.94
2018-09-08T11:28:10.534Z,24.22
2018-09-08T11:29:10.524Z,24.59
2018-09-08T11:30:10.512Z,24.90
2018-09-08T11:31:10.518Z,25.20
2018-09-08T11:32:10.495Z,25.34
2018-09-08T11:33:10.479Z,25.52
2018-09-08T11:34:10.471Z,25.61
2018-09-08T11:35:10.463Z,25.72
2018-09-08T11:36:10.465Z,26.04
2018-09-08T11:37:10.431Z,26.22
2018-09-08T11:38:10.499Z,26.46
2018-09-08T11:39:10.417Z,26.83
2018-09-08T11:40:10.401Z,26.86
2018-09-08T11:41:10.420Z,27.19
2018-09-08T11:42:10.377Z,27.54
2018-09-08T11:43:10.370Z,27.71
2018-09-08T11:44:10.363Z,27.92
2018-09-08T11:45:10.348Z,28.10
2018-09-08T11:46:10.365Z,28.13
2018-09-08T11:47:10.334Z,28.33
2018-09-08T11:48:10.314Z,28.47
2018-09-08T11:49:10.309Z,28.62
2018-09-08T11:50:10.296Z,28.68
2018-09-08T11:51:10.303Z,28.93
2018-09-08T11:52:10.280Z,28.69
2018-09-08T11:53:10.267Z,28.48
2018-09-08T11:54:10.256Z,28.41
2018-09-08T11:55:10.242Z,28.40
2018-09-08T11:56:10.261Z,28.09
2018-09-08T11:57:10.223Z,28.25
2018-09-08T11:58:10.212Z,27.46
2018-09-08T11:59:10.244Z,26.83
2018-09-08T12:00:10.190Z,26.87
2018-09-08T12:01:10.198Z,26.64
2018-09-08T12:02:10.241Z,26.72
2018-09-08T12:03:10.221Z,26.96
2018-09-08T12:04:10.155Z,27.05
2018-09-08T12:05:10.141Z,27.11
2018-09-08T12:06:10.166Z,26.86
2018-09-08T12:07:10.121Z,26.46
2018-09-08T12:08:10.196Z,25.86
2018-09-08T12:09:10.097Z,24.73
2018-09-08T12:10:10.089Z,24.05
2018-09-08T12:11:10.077Z,24.08
2018-09-08T12:12:10.083Z,24.19
2018-09-08T12:13:10.056Z,24.39
2018-09-08T12:14:10.035Z,24.69
2018-09-08T12:15:10.033Z,24.98
2018-09-08T12:16:10.019Z,25.24
2018-09-08T12:17:10.038Z,25.17
2018-09-08T12:18:09.997Z,24.76
2018-09-08T12:19:10.037Z,24.79
2018-09-08T12:20:09.970Z,24.76
2018-09-08T12:21:09.964Z,25.10
2018-09-08T12:22:10.026Z,25.39
2018-09-08T12:23:09.939Z,25.38
2018-09-08T12:24:09.934Z,25.27
2018-09-08T12:25:09.925Z,24.68
2018-09-08T12:26:09.905Z,24.41
2018-09-08T12:27:09.924Z,24.56
2018-09-08T12:28:09.884Z,24.73
2018-09-08T12:29:09.871Z,25.30
2018-09-08T12:30:09.873Z,25.74
2018-09-08T12:31:09.855Z,25.86
2018-09-08T12:32:09.862Z,26.06
2018-09-08T12:33:09.829Z,26.55
2018-09-08T12:34:09.828Z,26.99
2018-09-08T12:35:09.814Z,27.58
2018-09-08T12:36:09.805Z,27.73
2018-09-08T12:37:09.832Z,27.54
2018-09-08T12:38:09.782Z,27.50
2018-09-08T12:39:09.766Z,27.50
2018-09-08T12:40:09.761Z,27.33
2018-09-08T12:41:09.744Z,26.81
2018-09-08T12:42:09.763Z,26.32
2018-09-08T12:43:09.722Z,26.12
2018-09-08T12:44:09.720Z,25.98
2018-09-08T12:45:09.709Z,25.61
2018-09-08T12:46:09.690Z,25.57
2018-09-08T12:47:09.709Z,25.28
2018-09-08T12:48:09.675Z,25.07
2018-09-08T12:49:09.668Z,24.87
2018-09-08T12:50:09.646Z,24.91
2018-09-08T12:51:09.639Z,24.91
2018-09-08T12:52:09.666Z,24.88
2018-09-08T12:53:09.613Z,24.71
2018-09-08T12:54:09.605Z,24.76
2018-09-08T12:55:09.597Z,25.16
2018-09-08T12:56:09.583Z,25.56
2018-09-08T12:57:09.596Z,26.02
2018-09-08T12:58:09.565Z,26.43
2018-09-08T12:59:09.599Z,26.83
2018-09-08T13:00:09.539Z,27.16
2018-09-08T13:01:09.531Z,27.43
2018-09-08T13:02:09.541Z,27.35
2018-09-08T13:03:09.511Z,27.14
2018-09-08T13:04:09.500Z,27.33
2018-09-08T13:05:09.484Z,27.59
2018-09-08T13:06:09.481Z,27.24
2018-09-08T13:07:09.483Z,27.17
2018-09-08T13:08:09.460Z,26.94
2018-09-08T13:09:09.449Z,26.87
2018-09-08T13:10:09.430Z,27.02
2018-09-08T13:11:09.426Z,27.47
2018-09-08T13:12:09.435Z,27.85
2018-09-08T13:13:09.397Z,28.10
2018-09-08T13:14:09.398Z,28.04
2018-09-08T13:15:09.378Z,28.21
2018-09-08T13:16:09.374Z,28.28
2018-09-08T13:17:09.365Z,28.41
2018-09-08T13:18:09.366Z,28.53
2018-09-08T13:19:09.336Z,28.47
2018-09-08T13:20:09.329Z,28.29
2018-09-08T13:21:09.315Z,28.35
2018-09-08T13:22:09.307Z,28.04
2018-09-08T13:23:09.322Z,27.53
2018-09-08T13:24:09.356Z,26.65
2018-09-08T13:25:09.278Z,25.49
2018-09-08T13:26:09.261Z,25.00
2018-09-08T13:27:09.247Z,24.90
2018-09-08T13:28:09.268Z,24.67
2018-09-08T13:29:09.229Z,24.53
2018-09-08T13:30:09.223Z,24.08
2018-09-08T13:31:09.213Z,23.82
2018-09-08T13:32:09.194Z,23.71
2018-09-08T13:33:09.209Z,23.26
2018-09-08T13:34:09.175Z,23.19
2018-09-08T13:35:09.162Z,23.26
2018-09-08T13:36:09.158Z,22.93
2018-09-08T13:37:09.136Z,22.80
2018-09-08T13:38:09.157Z,22.97
2018-09-08T13:39:09.121Z,23.42
2018-09-08T13:40:09.113Z,23.76
2018-09-08T13:41:09.102Z,23.97
2018-09-08T13:42:09.089Z,24.20
2018-09-08T13:43:09.098Z,24.19
2018-09-08T13:44:09.067Z,24.37
2018-09-08T13:45:09.049Z,24.57
2018-09-08T13:46:09.053Z,25.10
2018-09-08T13:47:09.154Z,25.43
2018-09-08T13:48:09.048Z,25.59
2018-09-08T13:49:09.014Z,25.72
2018-09-08T13:50:09.002Z,25.93
2018-09-08T13:51:08.986Z,26.08
2018-09-08T13:52:08.979Z,26.21
2018-09-08T13:53:08.971Z,26.40
2018-09-08T13:54:08.974Z,26.22
2018-09-08T13:55:08.945Z,26.31
2018-09-08T13:56:08.930Z,26.18
2018-09-08T13:57:08.955Z,26.05
2018-09-08T13:58:08.911Z,25.93
2018-09-08T13:59:08.924Z,25.83
2018-09-08T14:00:08.887Z,25.86
2018-09-08T14:01:08.886Z,25.61
2018-09-08T14:02:08.868Z,24.75
2018-09-08T14:03:08.862Z,24.19
2018-09-08T14:04:08.880Z,24.16
2018-09-08T14:05:08.833Z,24.13
2018-09-08T14:06:08.849Z,24.19
2018-09-08T14:07:08.808Z,24.54
2018-09-08T14:08:08.807Z,24.49
2018-09-08T14:09:08.787Z,24.61
2018-09-08T14:10:08.815Z,24.57
2018-09-08T14:11:08.765Z,24.73
2018-09-08T14:12:08.763Z,24.92
2018-09-08T14:13:08.751Z,24.91
2018-09-08T14:14:08.733Z,24.88
2018-09-08T14:15:08.729Z,24.90
2018-09-08T14:16:08.732Z,24.79
2018-09-08T14:17:08.699Z,24.97
2018-09-08T14:18:08.696Z,24.95
2018-09-08T14:19:08.676Z,25.09
2018-09-08T14:20:08.674Z,25.17
2018-09-08T14:21:08.685Z,25.01
2018-09-08T14:22:08.642Z,25.01
2018-09-08T14:23:08.641Z,24.77
2018-09-08T14:24:08.620Z,24.73
2018-09-08T14:25:08.612Z,24.56
2018-09-08T14:26:08.627Z,24.64
2018-09-08T14:27:08.595Z,24.73
2018-09-08T14:28:08.576Z,24.67
2018-09-08T14:29:08.571Z,24.53
2018-09-08T14:30:08.558Z,24.13
2018-09-08T14:31:08.563Z,23.90
2018-09-08T14:32:08.541Z,23.64
2018-09-08T14:33:08.523Z,23.43
2018-09-08T14:34:08.515Z,23.22
2018-09-08T14:35:08.507Z,23.20
2018-09-08T14:36:08.519Z,23.09
2018-09-08T14:37:08.481Z,23.11
2018-09-08T14:38:08.465Z,22.83
2018-09-08T14:39:08.451Z,22.75
2018-09-08T14:40:08.450Z,22.68
2018-09-08T14:41:08.436Z,22.86
2018-09-08T14:42:08.441Z,22.99
2018-09-08T14:43:08.406Z,22.99
2018-09-08T14:44:08.397Z,23.15
2018-09-08T14:45:08.390Z,23.23
2018-09-08T14:46:08.372Z,23.46
2018-09-08T14:47:08.391Z,23.22
2018-09-08T14:48:08.350Z,23.47
2018-09-08T14:49:08.345Z,23.53
2018-09-08T14:50:08.330Z,23.31
2018-09-08T14:51:08.315Z,23.07
2018-09-08T14:52:08.336Z,22.93
2018-09-08T14:53:08.294Z,23.12
2018-09-08T14:54:08.286Z,23.19
2018-09-08T14:55:08.279Z,22.87
2018-09-08T14:56:08.258Z,22.92
2018-09-08T14:57:08.302Z,22.92
2018-09-08T14:58:08.244Z,22.90
2018-09-08T14:59:08.234Z,22.82
2018-09-08T15:00:08.250Z,22.68
2018-09-08T15:01:08.214Z,22.44
2018-09-08T15:02:08.224Z,22.23
2018-09-08T15:03:08.180Z,22.07
2018-09-08T15:04:08.179Z,22.28
2018-09-08T15:05:08.263Z,22.14
2018-09-08T15:06:08.147Z,22.20
2018-09-08T15:07:08.168Z,22.25
2018-09-08T15:08:08.123Z,22.22
2018-09-08T15:09:08.114Z,22.27
2018-09-08T15:10:08.115Z,22.29
2018-09-08T15:11:08.090Z,22.46
2018-09-08T15:12:08.109Z,22.43